createdAt,value
2017-12-12T00:01:48.812Z,7.61
2017-12-12T00:04:16.276Z,7.72
2017-12-12T00:06:43.707Z,7.86
2017-12-12T00:09:11.156Z,7.89
2017-12-12T00:11:38.633Z,8.05
2017-12-12T00:14:06.154Z,8.19
2017-12-12T00:16:33.608Z,8.23
2017-12-12T00:19:01.060Z,8.28
2017-12-12T00:21:28.518Z,8.30
2017-12-12T00:23:55.977Z,8.36
2017-12-12T00:26:23.649Z,8.41
2017-12-12T00:28:51.186Z,8.47
2017-12-12T00:37:09.101Z,8.49
2017-12-12T00:39:57.390Z,8.55
2017-12-12T00:42:24.838Z,8.52
2017-12-12T00:44:52.297Z,8.53
2017-12-12T00:47:19.735Z,8.48
2017-12-12T00:49:47.181Z,8.45
2017-12-12T00:52:15.001Z,8.52
2017-12-12T00:54:42.481Z,8.52
2017-12-12T00:57:09.949Z,8.52
2017-12-12T00:59:37.397Z,8.53
2017-12-12T01:02:04.886Z,8.57
2017-12-12T01:04:32.332Z,8.54
2017-12-12T01:06:59.819Z,8.55
2017-12-12T01:09:27.302Z,8.42
2017-12-12T01:11:54.767Z,8.36
2017-12-12T01:14:22.244Z,8.40
2017-12-12T01:16:49.701Z,8.42
2017-12-12T01:19:17.287Z,8.40
2017-12-12T01:21:44.748Z,8.38
2017-12-12T01:24:12.184Z,8.56
2017-12-12T01:26:39.687Z,8.55
2017-12-12T01:29:07.157Z,8.48
2017-12-12T01:31:34.631Z,8.42
2017-12-12T01:34:02.085Z,8.46
2017-12-12T01:36:29.525Z,8.58
2017-12-12T01:38:57.028Z,8.49
2017-12-12T01:41:24.492Z,8.52
2017-12-12T01:43:51.933Z,8.56
2017-12-12T01:46:19.390Z,8.68
2017-12-12T01:48:46.920Z,8.62
2017-12-12T01:51:14.365Z,8.53
2017-12-12T01:53:41.818Z,8.61
2017-12-12T01:56:09.326Z,8.52
2017-12-12T01:58:36.800Z,8.55
2017-12-12T02:01:04.240Z,8.63
2017-12-12T02:03:31.753Z,8.71
2017-12-12T02:05:59.196Z,8.77
2017-12-12T02:08:26.695Z,8.74
2017-12-12T02:10:54.144Z,8.62
2017-12-12T02:13:21.610Z,8.67
2017-12-12T02:15:49.055Z,8.78
2017-12-12T02:18:16.857Z,8.79
2017-12-12T02:20:44.343Z,8.81
2017-12-12T02:23:11.810Z,8.71
2017-12-12T02:25:39.254Z,8.72
2017-12-12T02:28:06.746Z,8.59
2017-12-12T02:30:34.239Z,8.61
2017-12-12T02:33:01.683Z,8.61
2017-12-12T02:35:29.161Z,8.67
2017-12-12T02:37:56.667Z,8.72
2017-12-12T02:40:24.136Z,8.75
2017-12-12T02:42:51.675Z,8.83
2017-12-12T02:45:19.133Z,8.74
2017-12-12T02:47:46.618Z,8.69
2017-12-12T02:50:14.071Z,8.68
2017-12-12T02:52:41.578Z,8.71
2017-12-12T02:55:09.031Z,8.59
2017-12-12T02:57:36.489Z,8.53
2017-12-12T03:00:03.936Z,8.48
2017-12-12T03:02:31.453Z,8.40
2017-12-12T03:04:59.019Z,8.37
2017-12-12T03:07:26.505Z,8.34
2017-12-12T03:09:53.953Z,8.40
2017-12-12T03:12:21.420Z,8.45
2017-12-12T03:14:48.899Z,8.47
2017-12-12T03:17:16.357Z,8.57
2017-12-12T03:19:43.797Z,8.62
2017-12-12T03:22:11.252Z,8.71
2017-12-12T03:24:38.766Z,8.77
2017-12-12T03:27:06.333Z,8.81
2017-12-12T03:29:33.791Z,8.83
2017-12-12T03:32:01.238Z,8.82
2017-12-12T03:34:28.759Z,8.88
2017-12-12T03:36:56.206Z,8.84
2017-12-12T03:39:23.684Z,8.88
2017-12-12T03:41:51.133Z,8.88
2017-12-12T03:44:18.657Z,8.87
2017-12-12T03:46:46.092Z,8.87
2017-12-12T03:49:13.556Z,8.90
2017-12-12T03:51:41.012Z,8.89
2017-12-12T03:54:08.518Z,8.93
2017-12-12T03:56:36.068Z,8.90
2017-12-12T03:59:03.513Z,8.83
2017-12-12T04:01:31.011Z,8.77
2017-12-12T04:03:58.479Z,8.64
2017-12-12T04:06:25.935Z,8.64
2017-12-12T04:08:53.421Z,8.58
2017-12-12T04:11:20.907Z,8.57
2017-12-12T04:13:48.483Z,8.64
2017-12-12T04:16:16.042Z,8.63
2017-12-12T04:18:43.489Z,8.56
2017-12-12T04:21:10.986Z,8.54
2017-12-12T04:23:38.425Z,8.52
2017-12-12T04:26:05.873Z,8.45
2017-12-12T04:28:33.348Z,8.37
2017-12-12T04:31:00.855Z,8.35
2017-12-12T04:33:28.356Z,8.33
2017-12-12T04:35:55.793Z,8.29
2017-12-12T04:38:23.253Z,8.22
2017-12-12T04:40:50.709Z,8.21
2017-12-12T04:43:18.202Z,8.19
2017-12-12T04:45:45.645Z,8.19
2017-12-12T04:48:13.100Z,8.27
2017-12-12T04:50:40.571Z,8.20
2017-12-12T04:53:08.103Z,8.13
2017-12-12T04:55:35.550Z,8.07
2017-12-12T04:58:02.992Z,8.01
2017-12-12T05:00:30.487Z,7.96
2017-12-12T05:02:57.960Z,7.94
2017-12-12T05:05:25.430Z,7.96
2017-12-12T05:07:52.889Z,8.01
2017-12-12T05:10:20.473Z,8.01
2017-12-12T05:12:48.929Z,8.20
2017-12-12T05:15:16.394Z,8.30
2017-12-12T05:17:43.844Z,8.44
2017-12-12T05:20:11.326Z,8.50
2017-12-12T05:22:38.763Z,8.59
2017-12-12T05:25:06.317Z,8.60
2017-12-12T05:27:33.790Z,8.68
2017-12-12T05:30:01.242Z,8.73
2017-12-12T05:32:28.725Z,8.81
2017-12-12T05:34:56.198Z,8.86
2017-12-12T05:37:23.638Z,8.89
2017-12-12T05:39:51.576Z,8.88
2017-12-12T05:42:19.073Z,8.94
2017-12-12T05:44:46.658Z,9.00
2017-12-12T05:47:14.151Z,9.02
2017-12-12T05:49:41.728Z,9.05
2017-12-12T05:52:09.188Z,9.06
2017-12-12T05:54:36.629Z,9.07
2017-12-12T05:57:04.135Z,9.10
2017-12-12T05:59:31.580Z,9.09
2017-12-12T06:01:59.036Z,9.03
2017-12-12T06:04:26.488Z,8.99
2017-12-12T06:06:53.939Z,8.93
2017-12-12T06:09:21.503Z,8.89
2017-12-12T06:11:49.012Z,8.91
2017-12-12T06:14:16.549Z,8.87
2017-12-12T06:16:44.077Z,8.85
2017-12-12T06:19:11.584Z,8.86
2017-12-12T06:21:39.053Z,8.90
2017-12-12T06:24:06.491Z,8.87
2017-12-12T06:26:33.925Z,8.83
2017-12-12T06:29:01.449Z,8.84
2017-12-12T06:31:28.954Z,8.83
2017-12-12T06:33:56.422Z,8.80
2017-12-12T06:36:23.970Z,8.77
2017-12-12T06:38:51.542Z,8.73
2017-12-12T06:41:18.992Z,8.72
2017-12-12T06:43:46.437Z,8.71
2017-12-12T06:46:13.874Z,8.64
2017-12-12T06:48:41.316Z,8.53
2017-12-12T06:51:08.866Z,8.35
2017-12-12T06:53:42.116Z,8.22
2017-12-12T06:56:09.553Z,8.03
2017-12-12T06:58:37.136Z,7.87
2017-12-12T07:01:04.702Z,7.79
2017-12-12T07:03:32.151Z,7.75
2017-12-12T07:05:59.604Z,7.78
2017-12-12T07:08:27.045Z,7.77
2017-12-12T07:10:54.493Z,7.73
2017-12-12T07:13:21.940Z,7.71
2017-12-12T07:15:49.399Z,7.65
2017-12-12T07:18:16.845Z,7.60
2017-12-12T07:20:44.318Z,7.49
2017-12-12T07:23:11.815Z,7.47
2017-12-12T07:25:39.293Z,7.43
2017-12-12T07:28:06.773Z,7.41
2017-12-12T07:30:34.244Z,7.40
2017-12-12T07:33:01.689Z,7.41
2017-12-12T07:35:29.177Z,7.40
2017-12-12T07:37:56.748Z,7.34
2017-12-12T07:40:24.209Z,7.26
2017-12-12T07:42:51.732Z,7.23
2017-12-12T07:45:19.272Z,7.21
2017-12-12T07:47:46.752Z,7.16
2017-12-12T07:50:14.203Z,7.12
2017-12-12T07:52:41.667Z,7.04
2017-12-12T07:55:09.114Z,6.94
2017-12-12T07:57:36.560Z,6.86
2017-12-12T08:00:04.011Z,6.84
2017-12-12T08:02:31.561Z,6.80
2017-12-12T08:04:59.008Z,6.79
2017-12-12T08:07:26.446Z,6.77
2017-12-12T08:09:53.911Z,7.12
2017-12-12T08:12:21.363Z,7.24
2017-12-12T08:14:48.824Z,7.47
2017-12-12T08:17:16.274Z,7.87
2017-12-12T08:19:43.733Z,8.20
2017-12-12T08:22:11.170Z,8.01
2017-12-12T08:24:38.686Z,7.97
2017-12-12T08:27:06.203Z,7.64
2017-12-12T08:29:33.659Z,7.58
2017-12-12T08:32:01.121Z,7.32
2017-12-12T08:34:28.568Z,7.03
2017-12-12T08:36:56.025Z,6.80
2017-12-12T08:39:23.470Z,6.74
2017-12-12T08:41:50.991Z,6.67
2017-12-12T08:44:18.448Z,6.52
2017-12-12T08:46:45.901Z,6.42
2017-12-12T08:49:13.363Z,6.21
2017-12-12T08:51:40.823Z,6.12
2017-12-12T08:54:08.304Z,6.07
2017-12-12T08:56:36.080Z,6.06
2017-12-12T08:59:03.566Z,6.16
2017-12-12T09:01:31.021Z,6.38
2017-12-12T09:03:58.475Z,6.50
2017-12-12T09:06:25.921Z,6.40
2017-12-12T09:08:53.408Z,6.31
2017-12-12T09:11:20.873Z,6.17
2017-12-12T09:13:48.374Z,6.18
2017-12-12T09:16:15.848Z,6.11
2017-12-12T09:18:43.306Z,6.17
2017-12-12T09:21:10.744Z,5.98
2017-12-12T09:23:38.212Z,5.93
2017-12-12T09:26:05.663Z,5.80
2017-12-12T09:28:33.128Z,5.73
2017-12-12T09:31:00.574Z,5.62
2017-12-12T09:33:28.039Z,5.62
2017-12-12T09:35:55.608Z,5.61
2017-12-12T09:38:23.084Z,5.64
2017-12-12T09:40:50.807Z,5.62
2017-12-12T09:43:18.322Z,5.65
2017-12-12T09:45:45.801Z,5.64
2017-12-12T09:48:13.245Z,5.55
2017-12-12T09:50:40.726Z,5.50
2017-12-12T09:53:08.200Z,5.56
2017-12-12T09:55:35.651Z,5.56
2017-12-12T09:58:03.100Z,5.56
2017-12-12T10:00:30.570Z,5.64
2017-12-12T10:02:58.006Z,5.71
2017-12-12T10:05:25.480Z,5.64
2017-12-12T10:07:53.023Z,5.73
2017-12-12T10:10:20.449Z,5.73
2017-12-12T10:12:47.941Z,5.73
2017-12-12T10:15:15.422Z,5.75
2017-12-12T10:17:42.909Z,5.89
2017-12-12T10:20:10.342Z,6.00
2017-12-12T10:22:37.793Z,6.07
2017-12-12T10:25:05.236Z,6.03
2017-12-12T10:27:32.685Z,6.12
2017-12-12T10:30:00.120Z,6.26
2017-12-12T10:32:27.623Z,6.53
2017-12-12T10:34:55.070Z,7.25
2017-12-12T10:37:22.603Z,7.98
2017-12-12T10:39:50.068Z,8.38
2017-12-12T10:42:17.551Z,8.87
2017-12-12T10:44:45.029Z,9.11
2017-12-12T10:47:12.462Z,9.11
2017-12-12T10:49:39.922Z,9.40
2017-12-12T10:52:07.368Z,9.34
2017-12-12T10:54:34.968Z,9.30
2017-12-12T10:57:02.394Z,9.13
2017-12-12T10:59:29.859Z,9.07
2017-12-12T11:01:57.302Z,9.01
2017-12-12T11:04:24.741Z,8.50
2017-12-12T11:06:52.213Z,7.95
2017-12-12T11:09:19.770Z,7.84
2017-12-12T11:11:47.227Z,7.57
2017-12-12T11:14:14.675Z,7.39
2017-12-12T11:16:42.130Z,7.06
2017-12-12T11:19:09.604Z,6.91
2017-12-12T11:21:37.093Z,6.63
2017-12-12T11:24:04.786Z,6.59
2017-12-12T11:26:32.245Z,6.48
2017-12-12T11:28:59.683Z,6.48
2017-12-12T11:31:27.170Z,6.41
2017-12-12T11:33:54.630Z,6.30
2017-12-12T11:36:22.091Z,6.24
2017-12-12T11:38:49.541Z,6.19
2017-12-12T11:41:16.992Z,6.09
2017-12-12T11:43:44.462Z,6.21
2017-12-12T11:46:11.927Z,6.15
2017-12-12T11:48:39.503Z,6.30
2017-12-12T11:51:06.943Z,6.25
2017-12-12T11:53:34.428Z,6.54
2017-12-12T11:56:01.861Z,6.68
2017-12-12T11:58:29.323Z,6.70
2017-12-12T12:00:56.808Z,7.16
2017-12-12T12:03:24.275Z,7.30
2017-12-12T12:05:51.739Z,7.37
2017-12-12T12:08:19.297Z,7.66
2017-12-12T12:10:46.761Z,8.01
2017-12-12T12:13:14.212Z,7.88
2017-12-12T12:15:41.790Z,8.30
2017-12-12T12:18:09.286Z,8.51
2017-12-12T12:20:36.754Z,8.61
2017-12-12T12:23:04.225Z,9.51
2017-12-12T12:25:31.676Z,10.18
2017-12-12T12:27:59.241Z,10.15
2017-12-12T12:30:26.894Z,10.22
2017-12-12T12:32:54.447Z,9.50
2017-12-12T12:35:21.920Z,8.95
2017-12-12T12:37:49.381Z,8.58
2017-12-12T12:40:16.921Z,8.46
2017-12-12T12:42:44.402Z,8.40
2017-12-12T12:45:11.851Z,8.60
2017-12-12T12:47:39.343Z,8.40
2017-12-12T12:50:06.805Z,8.56
2017-12-12T12:52:34.296Z,8.68
2017-12-12T12:55:01.782Z,8.40
2017-12-12T12:57:29.226Z,8.64
2017-12-12T12:59:56.752Z,8.45
2017-12-12T13:02:24.304Z,8.69
2017-12-12T13:04:51.919Z,8.55
2017-12-12T13:07:19.464Z,8.42
2017-12-12T13:09:46.917Z,8.59
2017-12-12T13:12:14.365Z,8.36
2017-12-12T13:14:41.843Z,8.62
2017-12-12T13:17:09.275Z,8.72
2017-12-12T13:19:36.738Z,8.57
2017-12-12T13:22:04.251Z,8.63
2017-12-12T13:24:31.696Z,8.37
2017-12-12T13:26:59.205Z,8.14
2017-12-12T13:29:26.670Z,7.85
2017-12-12T13:31:54.135Z,7.48
2017-12-12T13:34:21.564Z,7.02
2017-12-12T13:36:49.180Z,7.07
2017-12-12T13:39:16.628Z,7.37
2017-12-12T13:41:44.116Z,7.19
2017-12-12T13:44:11.583Z,7.13
2017-12-12T13:46:39.022Z,6.92
2017-12-12T13:49:06.469Z,6.73
2017-12-12T13:51:34.000Z,6.56
2017-12-12T13:54:01.574Z,6.33
2017-12-12T13:56:29.019Z,6.32
2017-12-12T13:58:56.497Z,6.12
2017-12-12T14:01:23.934Z,6.11
2017-12-12T14:03:51.449Z,6.04
2017-12-12T14:06:19.391Z,5.97
2017-12-12T14:08:46.848Z,5.93
2017-12-12T14:11:14.331Z,5.89
2017-12-12T14:13:41.780Z,5.78
2017-12-12T14:16:09.258Z,5.66
2017-12-12T14:18:36.777Z,5.69
2017-12-12T14:21:04.261Z,5.76
2017-12-12T14:23:32.159Z,5.69
2017-12-12T14:25:59.580Z,5.63
2017-12-12T14:28:27.033Z,5.65
2017-12-12T14:30:54.470Z,5.60
2017-12-12T14:33:21.950Z,5.54
2017-12-12T14:35:49.448Z,5.40
2017-12-12T14:38:16.925Z,5.33
2017-12-12T14:40:45.200Z,5.25
2017-12-12T14:43:12.649Z,5.31
2017-12-12T14:45:40.089Z,5.25
2017-12-12T14:48:07.526Z,5.20
2017-12-12T14:50:35.022Z,5.13
2017-12-12T14:53:02.488Z,5.07
2017-12-12T14:55:29.964Z,5.05
2017-12-12T14:57:57.428Z,5.05
2017-12-12T15:00:24.893Z,5.02
2017-12-12T15:02:52.368Z,5.04
2017-12-12T15:05:19.926Z,4.94
2017-12-12T15:07:47.381Z,4.92
2017-12-12T15:10:14.859Z,4.86
2017-12-12T15:12:42.326Z,4.85
2017-12-12T15:15:09.927Z,4.84
2017-12-12T15:17:37.383Z,4.85
2017-12-12T15:20:04.852Z,4.90
2017-12-12T15:22:32.309Z,4.96
2017-12-12T15:24:59.758Z,4.97
2017-12-12T15:27:27.205Z,4.95
2017-12-12T15:29:54.661Z,4.99
2017-12-12T15:32:22.133Z,4.99
2017-12-12T15:34:49.614Z,5.02
2017-12-12T15:37:17.065Z,5.03
2017-12-12T15:39:44.510Z,4.99
2017-12-12T15:42:11.952Z,4.97
2017-12-12T15:44:39.401Z,4.95
2017-12-12T15:47:06.892Z,4.93
2017-12-12T15:49:34.472Z,4.83
2017-12-12T15:52:01.934Z,4.77
2017-12-12T15:54:29.428Z,4.71
2017-12-12T15:56:56.905Z,4.71
2017-12-12T15:59:24.375Z,4.76
2017-12-12T16:01:55.609Z,4.77
2017-12-12T16:04:23.070Z,4.82
2017-12-12T16:06:50.643Z,4.78
2017-12-12T16:09:18.093Z,4.72
2017-12-12T16:11:45.539Z,4.69
2017-12-12T16:14:13.000Z,4.56
2017-12-12T16:16:40.461Z,4.57
2017-12-12T16:19:07.907Z,4.53
2017-12-12T16:21:35.439Z,4.56
2017-12-12T16:24:02.958Z,4.53
2017-12-12T16:26:30.421Z,4.53
2017-12-12T16:28:57.886Z,4.52
2017-12-12T16:31:26.574Z,4.47
2017-12-12T16:33:54.018Z,4.45
2017-12-12T16:36:21.517Z,4.45
2017-12-12T16:38:48.977Z,4.46
2017-12-12T16:41:16.443Z,4.45
2017-12-12T16:43:43.888Z,4.41
2017-12-12T16:46:11.335Z,4.35
2017-12-12T16:48:38.785Z,4.39
2017-12-12T16:51:06.550Z,4.39
2017-12-12T16:53:34.029Z,4.41
2017-12-12T16:56:01.485Z,4.42
2017-12-12T16:58:28.951Z,4.41
2017-12-12T17:00:56.407Z,4.42
2017-12-12T17:03:23.882Z,4.45
2017-12-12T17:05:51.370Z,4.47
2017-12-12T17:08:18.845Z,4.44
2017-12-12T17:10:46.309Z,4.38
2017-12-12T17:13:13.779Z,4.37
2017-12-12T17:15:41.221Z,4.42
2017-12-12T17:18:08.696Z,4.43
2017-12-12T17:20:36.141Z,4.41
2017-12-12T17:23:03.580Z,4.44
2017-12-12T17:25:31.038Z,4.46
2017-12-12T17:27:58.487Z,4.52
2017-12-12T17:30:25.964Z,4.56
2017-12-12T17:32:53.467Z,4.54
2017-12-12T17:35:20.920Z,4.46
2017-12-12T17:37:48.373Z,4.36
2017-12-12T17:40:15.845Z,4.31
2017-12-12T17:42:43.276Z,4.25
2017-12-12T17:45:10.793Z,4.26
2017-12-12T17:47:38.247Z,4.26
2017-12-12T17:50:05.743Z,4.21
2017-12-12T17:52:33.288Z,4.16
2017-12-12T17:55:00.731Z,4.12
2017-12-12T17:57:28.200Z,4.11
2017-12-12T17:59:55.697Z,4.08
2017-12-12T18:02:23.154Z,4.06
2017-12-12T18:04:50.617Z,4.00
2017-12-12T18:07:18.101Z,3.98
2017-12-12T18:09:45.547Z,4.02
2017-12-12T18:12:13.024Z,3.99
2017-12-12T18:14:40.614Z,3.94
2017-12-12T18:17:08.083Z,3.94
2017-12-12T18:19:35.596Z,3.93
2017-12-12T18:22:03.071Z,3.91
2017-12-12T18:24:30.797Z,3.91
2017-12-12T18:26:58.250Z,3.95
2017-12-12T18:29:25.757Z,3.96
2017-12-12T18:31:53.210Z,3.95
2017-12-12T18:34:20.683Z,4.01
2017-12-12T18:36:48.165Z,4.04
2017-12-12T18:39:15.614Z,4.07
2017-12-12T18:41:43.064Z,4.13
2017-12-12T18:44:10.529Z,4.17
2017-12-12T18:46:37.989Z,4.21
2017-12-12T18:49:05.432Z,4.29
2017-12-12T18:51:32.894Z,4.30
2017-12-12T18:54:00.434Z,4.29
2017-12-12T18:56:27.910Z,4.38
2017-12-12T18:58:55.383Z,4.34
2017-12-12T19:01:22.872Z,4.44
2017-12-12T19:03:50.351Z,4.47
2017-12-12T19:06:17.917Z,4.50
2017-12-12T19:08:45.369Z,4.52
2017-12-12T19:11:12.943Z,4.54
2017-12-12T19:13:40.404Z,4.57
2017-12-12T19:16:08.295Z,4.59
2017-12-12T19:18:35.776Z,4.59
2017-12-12T19:21:03.235Z,4.59
2017-12-12T19:23:30.694Z,4.67
2017-12-12T19:25:58.180Z,4.67
2017-12-12T19:28:25.666Z,4.66
2017-12-12T19:30:53.270Z,4.62
2017-12-12T19:33:20.777Z,4.64
2017-12-12T19:35:48.292Z,5.05
2017-12-12T19:38:16.406Z,5.10
2017-12-12T19:40:43.888Z,5.00
2017-12-12T19:43:11.438Z,4.96
2017-12-12T19:45:38.974Z,4.93
2017-12-12T19:48:06.476Z,4.84
2017-12-12T19:50:34.035Z,4.82
2017-12-12T19:53:01.470Z,4.84
2017-12-12T19:55:28.961Z,4.75
2017-12-12T19:57:56.524Z,4.73
2017-12-12T20:00:23.985Z,4.71
2017-12-12T20:02:51.488Z,4.73
2017-12-12T20:05:19.075Z,4.69
2017-12-12T20:07:46.510Z,4.64
2017-12-12T20:10:14.106Z,4.64
2017-12-12T20:12:41.636Z,4.66
2017-12-12T20:15:09.080Z,4.61
2017-12-12T20:17:36.574Z,4.69
2017-12-12T20:20:04.097Z,4.66
2017-12-12T20:22:31.663Z,4.57
2017-12-12T20:24:59.147Z,4.58
2017-12-12T20:27:26.661Z,4.57
2017-12-12T20:29:54.091Z,4.59
2017-12-12T20:32:21.613Z,4.57
2017-12-12T20:34:49.177Z,4.56
2017-12-12T20:37:16.637Z,4.55
2017-12-12T20:39:44.098Z,4.58
2017-12-12T20:42:11.552Z,4.58
2017-12-12T20:44:39.100Z,4.60
2017-12-12T20:47:06.548Z,4.58
2017-12-12T20:49:33.989Z,4.58
2017-12-12T20:52:01.648Z,4.58
2017-12-12T20:54:29.203Z,4.52
2017-12-12T20:56:56.713Z,4.53
2017-12-12T20:59:24.356Z,4.53
2017-12-12T21:01:51.986Z,4.59
2017-12-12T21:04:19.583Z,4.58
2017-12-12T21:06:47.079Z,4.56
2017-12-12T21:09:14.524Z,4.59
2017-12-12T21:11:41.960Z,4.57
2017-12-12T21:14:09.392Z,4.62
2017-12-12T21:16:36.835Z,4.55
2017-12-12T21:19:04.309Z,4.55
2017-12-12T21:21:31.844Z,4.54
2017-12-12T21:23:59.422Z,4.55
2017-12-12T21:26:26.890Z,4.58
2017-12-12T21:28:54.404Z,4.57
2017-12-12T21:31:21.923Z,4.62
2017-12-12T21:33:49.363Z,4.61
2017-12-12T21:36:16.859Z,4.61
2017-12-12T21:38:44.460Z,4.61
2017-12-12T21:41:11.955Z,4.61
2017-12-12T21:43:39.406Z,4.55
2017-12-12T21:46:06.974Z,4.60
2017-12-12T21:48:34.472Z,4.61
2017-12-12T21:51:01.922Z,4.63
2017-12-12T21:53:29.445Z,4.63
2017-12-12T21:55:56.954Z,4.65
2017-12-12T21:58:24.409Z,4.72
2017-12-12T22:00:51.920Z,4.67
2017-12-12T22:03:19.380Z,4.69
2017-12-12T22:05:46.912Z,4.68
2017-12-12T22:08:14.459Z,4.65
2017-12-12T22:10:41.984Z,4.61
2017-12-12T22:13:09.449Z,4.55
2017-12-12T22:15:36.938Z,4.60
2017-12-12T22:18:04.480Z,4.59
2017-12-12T22:20:32.055Z,4.58
2017-12-12T22:22:59.598Z,4.60
2017-12-12T22:25:27.083Z,4.59
2017-12-12T22:27:54.582Z,4.56
2017-12-12T22:30:22.078Z,4.60
2017-12-12T22:32:49.570Z,4.50
2017-12-12T22:35:16.996Z,4.54
2017-12-12T22:37:44.503Z,4.55
2017-12-12T22:40:12.016Z,4.57
2017-12-12T22:42:39.489Z,4.55
2017-12-12T22:45:07.056Z,4.52
2017-12-12T22:50:25.273Z,4.60
2017-12-12T22:52:52.761Z,4.56
2017-12-12T22:55:20.245Z,4.60
2017-12-12T22:57:47.782Z,4.57
2017-12-12T23:00:20.995Z,4.49
2017-12-12T23:02:48.475Z,4.50
2017-12-12T23:05:15.969Z,4.41
2017-12-12T23:07:43.431Z,4.39
2017-12-12T23:10:10.897Z,4.43
2017-12-12T23:12:38.336Z,4.45
2017-12-12T23:15:05.829Z,4.39
2017-12-12T23:17:33.345Z,4.39
2017-12-12T23:20:00.826Z,4.42
2017-12-12T23:22:28.260Z,4.37
2017-12-12T23:24:55.776Z,4.31
2017-12-12T23:27:23.246Z,4.28
2017-12-12T23:29:50.691Z,4.23
2017-12-12T23:32:18.154Z,4.26
2017-12-12T23:34:45.695Z,4.26
2017-12-12T23:37:13.167Z,4.15
2017-12-12T23:39:40.608Z,4.21
2017-12-12T23:42:08.066Z,4.22
2017-12-12T23:44:35.584Z,4.17
2017-12-12T23:47:03.047Z,4.17
2017-12-12T23:49:30.528Z,4.19
2017-12-12T23:51:58.084Z,4.02
2017-12-12T23:54:25.636Z,3.99
2017-12-12T23:56:53.082Z,3.96
2017-12-12T23:59:20.535Z,3.90
